This is the latest recevied weather packets stored in our database for station/object K6POO-1. If no packets are shown the sender has not sent any weather packets the latest 10 day(s).
| Time | Temp. | Humidity | Pressure | Rain* | Wind** | Luminosity | Snow |
|---|---|---|---|---|---|---|---|
| 1777414328 | 18.33° C | 60% | 1019 hPa | 0 mm | - | 749 W/m² | - |
| 1777414022 | 19.44° C | 58% | 1019.1 hPa | 0 mm | - | 763 W/m² | - |
| 1777413718 | 18.89° C | 57% | 1018.9 hPa | 0 mm | - | 776 W/m² | - |
| 1777413414 | 18.33° C | 60% | 1019.1 hPa | 0 mm | - | 790 W/m² | - |
| 1777413110 | 18.89° C | 57% | 1019.4 hPa | 0 mm | - | 802 W/m² | - |
| 1777412805 | 19.44° C | 56% | 1019.3 hPa | 0 mm | - | 816 W/m² | - |
| 1777412505 | 19.44° C | 56% | 1019.4 hPa | 0 mm | - | 825 W/m² | - |
| 1777412202 | 19.44° C | 56% | 1019.5 hPa | 0 mm | - | 837 W/m² | - |
| 1777411898 | 18.89° C | 56% | 1019.5 hPa | 0 mm | - | 848 W/m² | - |
| 1777411598 | 18.89° C | 58% | 1019.5 hPa | 0 mm | - | 857 W/m² | - |
| 1777411293 | 19.44° C | 54% | 1019.5 hPa | 0 mm | - | 867 W/m² | - |
| 1777410992 | 19.44° C | 53% | 1019.6 hPa | 0 mm | - | 876 W/m² | - |
| 1777410692 | 20° C | 50% | 1019.6 hPa | 0 mm | - | 885 W/m² | - |
| 1777410387 | 19.44° C | 51% | 1019.7 hPa | 0 mm | - | 891 W/m² | - |
| 1777410086 | 20° C | 52% | 1019.5 hPa | 0 mm | - | 900 W/m² | - |
| 1777409786 | 19.44° C | 54% | 1019.8 hPa | 0 mm | - | 908 W/m² | - |
| 1777409482 | 19.44° C | 53% | 1020 hPa | 0 mm | - | 914 W/m² | - |
| 1777409178 | 19.44° C | 54% | 1020 hPa | 0 mm | - | 918 W/m² | - |
| 1777408874 | 19.44° C | 55% | 1020 hPa | 0 mm | - | 925 W/m² | - |
| 1777408570 | 19.44° C | 59% | 1019.9 hPa | 0 mm | - | 924 W/m² | - |
| 1777408266 | 19.44° C | 60% | 1020.2 hPa | 0 mm | - | 941 W/m² | - |
| 1777407960 | 18.89° C | 61% | 1020.1 hPa | 0 mm | - | 938 W/m² | - |
| 1777407658 | 18.89° C | 61% | 1020.2 hPa | 0 mm | - | 948 W/m² | - |
| 1777407358 | 18.89° C | 60% | 1020.2 hPa | 0 mm | - | 952 W/m² | - |
| 1777407052 | 18.33° C | 62% | 1020.4 hPa | 0 mm | - | 948 W/m² | - |
* Rain latest hour (hover to see other rain measurements)
** Current wind speed in m/s (hover to see current wind gust speed)